sensor_id;sensor_type;location;lat;lon;timestamp;P1;durP1;ratioP1;P2;durP2;ratioP2
67429;SDS011;54298;52.076;5.264;2023-07-31T00:00:19;3.0;;;1.7;;
67429;SDS011;54298;52.076;5.264;2023-07-31T00:01:57;2.31;;;1.4;;
67429;SDS011;54298;52.076;5.264;2023-07-31T00:05:10;2.7;;;1.5;;
67429;SDS011;54298;52.076;5.264;2023-07-31T00:06:47;3.0;;;1.3;;
67429;SDS011;54298;52.076;5.264;2023-07-31T00:08:24;3.1;;;1.5;;
67429;SDS011;54298;52.076;5.264;2023-07-31T00:11:38;5.0;;;1.9;;
67429;SDS011;54298;52.076;5.264;2023-07-31T00:13:15;2.9;;;1.8;;
67429;SDS011;54298;52.076;5.264;2023-07-31T00:14:51;4.8;;;2.1;;
67429;SDS011;54298;52.076;5.264;2023-07-31T00:18:05;3.3;;;1.8;;
67429;SDS011;54298;52.076;5.264;2023-07-31T00:19:42;4.2;;;2.5;;
67429;SDS011;54298;52.076;5.264;2023-07-31T00:21:19;4.3;;;2.4;;
67429;SDS011;54298;52.076;5.264;2023-07-31T00:22:56;7.7;;;3.1;;
67429;SDS011;54298;52.076;5.264;2023-07-31T00:26:10;9.31;;;3.2;;
67429;SDS011;54298;52.076;5.264;2023-07-31T00:27:47;12.3;;;4.0;;
67429;SDS011;54298;52.076;5.264;2023-07-31T00:29:23;9.71;;;4.41;;
67429;SDS011;54298;52.076;5.264;2023-07-31T00:32:38;15.9;;;4.7;;
67429;SDS011;54298;52.076;5.264;2023-07-31T00:34:14;20.8;;;6.2;;
67429;SDS011;54298;52.076;5.264;2023-07-31T00:35:51;14.4;;;5.0;;
67429;SDS011;54298;52.076;5.264;2023-07-31T00:37:28;20.7;;;6.2;;
67429;SDS011;54298;52.076;5.264;2023-07-31T00:40:41;20.8;;;7.2;;
67429;SDS011;54298;52.076;5.264;2023-07-31T00:42:17;20.7;;;7.4;;
67429;SDS011;54298;52.076;5.264;2023-07-31T00:43:54;21.1;;;7.2;;
67429;SDS011;54298;52.076;5.264;2023-07-31T00:47:08;29.0;;;8.4;;
67429;SDS011;54298;52.076;5.264;2023-07-31T00:48:45;25.3;;;8.5;;
67429;SDS011;54298;52.076;5.264;2023-07-31T00:50:23;22.1;;;8.1;;
67429;SDS011;54298;52.076;5.264;2023-07-31T00:53:37;22.6;;;7.9;;
67429;SDS011;54298;52.076;5.264;2023-07-31T00:55:14;23.3;;;8.31;;
67429;SDS011;54298;52.076;5.264;2023-07-31T00:56:51;17.3;;;6.8;;
67429;SDS011;54298;52.076;5.264;2023-07-31T00:58:30;18.91;;;7.7;;
67429;SDS011;54298;52.076;5.264;2023-07-31T01:01:46;24.0;;;7.6;;
67429;SDS011;54298;52.076;5.264;2023-07-31T01:03:23;24.6;;;7.7;;
67429;SDS011;54298;52.076;5.264;2023-07-31T01:05:00;18.5;;;7.1;;
67429;SDS011;54298;52.076;5.264;2023-07-31T01:08:30;22.8;;;7.7;;
67429;SDS011;54298;52.076;5.264;2023-07-31T01:10:25;25.1;;;8.5;;
67429;SDS011;54298;52.076;5.264;2023-07-31T01:12:09;22.6;;;8.5;;
67429;SDS011;54298;52.076;5.264;2023-07-31T01:13:50;21.4;;;6.4;;
67429;SDS011;54298;52.076;5.264;2023-07-31T01:15:27;26.4;;;8.1;;
67429;SDS011;54298;52.076;5.264;2023-07-31T01:18:40;21.7;;;8.1;;
67429;SDS011;54298;52.076;5.264;2023-07-31T01:20:18;18.2;;;7.4;;
67429;SDS011;54298;52.076;5.264;2023-07-31T01:22:02;23.3;;;7.6;;
67429;SDS011;54298;52.076;5.264;2023-07-31T01:24:10;23.8;;;8.4;;
67429;SDS011;54298;52.076;5.264;2023-07-31T01:26:23;19.41;;;7.5;;
67429;SDS011;54298;52.076;5.264;2023-07-31T01:28:05;19.3;;;7.3;;
67429;SDS011;54298;52.076;5.264;2023-07-31T01:29:49;24.3;;;6.9;;
67429;SDS011;54298;52.076;5.264;2023-07-31T01:33:14;19.7;;;7.4;;
67429;SDS011;54298;52.076;5.264;2023-07-31T01:34:52;19.5;;;7.0;;
67429;SDS011;54298;52.076;5.264;2023-07-31T01:36:31;19.41;;;7.2;;
67429;SDS011;54298;52.076;5.264;2023-07-31T01:38:08;19.41;;;7.4;;
67429;SDS011;54298;52.076;5.264;2023-07-31T01:41:21;23.7;;;7.1;;
67429;SDS011;54298;52.076;5.264;2023-07-31T01:42:57;22.9;;;7.2;;
67429;SDS011;54298;52.076;5.264;2023-07-31T01:44:34;19.5;;;8.2;;
67429;SDS011;54298;52.076;5.264;2023-07-31T01:47:48;20.6;;;7.3;;
67429;SDS011;54298;52.076;5.264;2023-07-31T01:49:25;17.41;;;7.2;;
67429;SDS011;54298;52.076;5.264;2023-07-31T01:51:01;20.6;;;8.9;;
67429;SDS011;54298;52.076;5.264;2023-07-31T01:54:15;24.6;;;9.5;;
67429;SDS011;54298;52.076;5.264;2023-07-31T01:55:52;20.5;;;8.71;;
67429;SDS011;54298;52.076;5.264;2023-07-31T01:57:28;25.6;;;9.0;;
67429;SDS011;54298;52.076;5.264;2023-07-31T01:59:04;20.7;;;7.2;;
67429;SDS011;54298;52.076;5.264;2023-07-31T02:02:18;20.7;;;6.9;;
67429;SDS011;54298;52.076;5.264;2023-07-31T02:03:55;13.9;;;5.9;;
67429;SDS011;54298;52.076;5.264;2023-07-31T02:05:32;18.11;;;6.8;;
67429;SDS011;54298;52.076;5.264;2023-07-31T02:08:45;15.7;;;5.8;;
67429;SDS011;54298;52.076;5.264;2023-07-31T02:10:23;15.0;;;5.7;;
67429;SDS011;54298;52.076;5.264;2023-07-31T02:12:01;10.4;;;5.2;;
67429;SDS011;54298;52.076;5.264;2023-07-31T02:15:13;10.3;;;4.8;;
67429;SDS011;54298;52.076;5.264;2023-07-31T02:16:50;10.3;;;4.8;;
67429;SDS011;54298;52.076;5.264;2023-07-31T02:18:26;13.9;;;5.3;;
67429;SDS011;54298;52.076;5.264;2023-07-31T02:20:04;14.5;;;5.6;;
67429;SDS011;54298;52.076;5.264;2023-07-31T02:23:18;14.6;;;5.4;;
67429;SDS011;54298;52.076;5.264;2023-07-31T02:24:55;14.2;;;5.2;;
67429;SDS011;54298;52.076;5.264;2023-07-31T02:26:31;13.9;;;5.2;;
67429;SDS011;54298;52.076;5.264;2023-07-31T02:29:45;12.7;;;5.11;;
67429;SDS011;54298;52.076;5.264;2023-07-31T02:31:21;11.5;;;4.8;;
67429;SDS011;54298;52.076;5.264;2023-07-31T02:32:58;13.9;;;5.8;;
67429;SDS011;54298;52.076;5.264;2023-07-31T02:34:35;18.7;;;5.9;;
67429;SDS011;54298;52.076;5.264;2023-07-31T02:37:48;13.7;;;5.5;;
67429;SDS011;54298;52.076;5.264;2023-07-31T02:39:26;14.8;;;5.4;;
67429;SDS011;54298;52.076;5.264;2023-07-31T02:41:03;11.7;;;4.91;;
67429;SDS011;54298;52.076;5.264;2023-07-31T02:44:16;14.2;;;5.6;;
67429;SDS011;54298;52.076;5.264;2023-07-31T02:45:52;16.11;;;5.5;;
67429;SDS011;54298;52.076;5.264;2023-07-31T02:47:29;17.8;;;6.0;;
67429;SDS011;54298;52.076;5.264;2023-07-31T02:50:42;13.9;;;5.7;;
67429;SDS011;54298;52.076;5.264;2023-07-31T02:52:18;14.9;;;5.4;;
67429;SDS011;54298;52.076;5.264;2023-07-31T02:53:55;16.4;;;5.8;;
67429;SDS011;54298;52.076;5.264;2023-07-31T02:55:31;15.5;;;6.4;;
67429;SDS011;54298;52.076;5.264;2023-07-31T02:58:44;17.7;;;6.9;;
67429;SDS011;54298;52.076;5.264;2023-07-31T03:00:21;18.3;;;6.0;;
67429;SDS011;54298;52.076;5.264;2023-07-31T03:01:58;18.3;;;6.0;;
67429;SDS011;54298;52.076;5.264;2023-07-31T03:05:12;19.3;;;7.0;;
67429;SDS011;54298;52.076;5.264;2023-07-31T03:06:49;16.61;;;6.5;;
67429;SDS011;54298;52.076;5.264;2023-07-31T03:08:26;24.6;;;6.8;;
67429;SDS011;54298;52.076;5.264;2023-07-31T03:11:40;19.0;;;6.8;;
67429;SDS011;54298;52.076;5.264;2023-07-31T03:13:17;18.3;;;6.8;;
67429;SDS011;54298;52.076;5.264;2023-07-31T03:14:54;17.61;;;6.5;;
67429;SDS011;54298;52.076;5.264;2023-07-31T03:16:31;22.6;;;6.9;;
67429;SDS011;54298;52.076;5.264;2023-07-31T03:19:44;14.2;;;7.3;;
67429;SDS011;54298;52.076;5.264;2023-07-31T03:21:21;17.0;;;7.3;;
67429;SDS011;54298;52.076;5.264;2023-07-31T03:22:58;22.4;;;7.8;;
67429;SDS011;54298;52.076;5.264;2023-07-31T03:26:11;22.5;;;7.3;;
67429;SDS011;54298;52.076;5.264;2023-07-31T03:27:48;14.5;;;7.0;;
67429;SDS011;54298;52.076;5.264;2023-07-31T03:29:25;18.41;;;7.2;;
67429;SDS011;54298;52.076;5.264;2023-07-31T03:31:02;18.7;;;8.0;;
67429;SDS011;54298;52.076;5.264;2023-07-31T03:34:15;16.11;;;7.3;;
67429;SDS011;54298;52.076;5.264;2023-07-31T03:35:51;17.0;;;7.2;;
67429;SDS011;54298;52.076;5.264;2023-07-31T03:37:29;26.7;;;8.0;;
67429;SDS011;54298;52.076;5.264;2023-07-31T03:40:42;18.91;;;6.9;;
67429;SDS011;54298;52.076;5.264;2023-07-31T03:42:19;17.7;;;7.2;;
67429;SDS011;54298;52.076;5.264;2023-07-31T03:43:56;17.61;;;6.9;;
67429;SDS011;54298;52.076;5.264;2023-07-31T03:47:11;15.2;;;6.7;;
67429;SDS011;54298;52.076;5.264;2023-07-31T03:48:47;19.5;;;7.0;;
67429;SDS011;54298;52.076;5.264;2023-07-31T03:50:24;16.4;;;7.0;;
67429;SDS011;54298;52.076;5.264;2023-07-31T03:55:14;19.0;;;6.4;;
67429;SDS011;54298;52.076;5.264;2023-07-31T03:56:51;15.8;;;6.5;;
67429;SDS011;54298;52.076;5.264;2023-07-31T03:58:27;16.4;;;6.6;;
67429;SDS011;54298;52.076;5.264;2023-07-31T04:01:43;19.11;;;6.2;;
67429;SDS011;54298;52.076;5.264;2023-07-31T04:03:19;16.9;;;6.9;;
67429;SDS011;54298;52.076;5.264;2023-07-31T04:04:56;17.5;;;6.6;;
67429;SDS011;54298;52.076;5.264;2023-07-31T04:08:09;19.8;;;6.6;;
67429;SDS011;54298;52.076;5.264;2023-07-31T04:09:46;15.8;;;6.6;;
67429;SDS011;54298;52.076;5.264;2023-07-31T04:11:23;14.7;;;6.7;;
67429;SDS011;54298;52.076;5.264;2023-07-31T04:13:00;18.11;;;6.8;;
67429;SDS011;54298;52.076;5.264;2023-07-31T04:16:13;19.5;;;6.9;;
67429;SDS011;54298;52.076;5.264;2023-07-31T04:17:50;13.7;;;6.2;;
67429;SDS011;54298;52.076;5.264;2023-07-31T04:19:26;16.3;;;6.3;;
67429;SDS011;54298;52.076;5.264;2023-07-31T04:22:40;17.5;;;6.8;;
67429;SDS011;54298;52.076;5.264;2023-07-31T04:24:17;14.8;;;6.5;;
67429;SDS011;54298;52.076;5.264;2023-07-31T04:25:54;17.2;;;7.0;;
67429;SDS011;54298;52.076;5.264;2023-07-31T04:27:31;17.2;;;7.0;;
67429;SDS011;54298;52.076;5.264;2023-07-31T04:30:45;16.2;;;6.5;;
67429;SDS011;54298;52.076;5.264;2023-07-31T04:32:23;18.5;;;6.8;;
67429;SDS011;54298;52.076;5.264;2023-07-31T04:33:59;13.2;;;6.4;;
67429;SDS011;54298;52.076;5.264;2023-07-31T04:37:12;17.0;;;6.4;;
67429;SDS011;54298;52.076;5.264;2023-07-31T04:38:49;14.3;;;6.0;;
67429;SDS011;54298;52.076;5.264;2023-07-31T04:40:27;15.2;;;6.4;;
67429;SDS011;54298;52.076;5.264;2023-07-31T04:43:40;18.3;;;6.3;;
67429;SDS011;54298;52.076;5.264;2023-07-31T04:45:17;16.8;;;5.9;;
67429;SDS011;54298;52.076;5.264;2023-07-31T04:46:54;18.91;;;7.0;;
67429;SDS011;54298;52.076;5.264;2023-07-31T04:48:31;17.3;;;6.2;;
67429;SDS011;54298;52.076;5.264;2023-07-31T04:51:45;17.11;;;6.1;;
67429;SDS011;54298;52.076;5.264;2023-07-31T04:53:21;14.0;;;5.6;;
67429;SDS011;54298;52.076;5.264;2023-07-31T04:54:58;13.8;;;6.2;;
67429;SDS011;54298;52.076;5.264;2023-07-31T04:58:12;12.3;;;5.5;;
67429;SDS011;54298;52.076;5.264;2023-07-31T04:59:49;14.2;;;5.2;;
67429;SDS011;54298;52.076;5.264;2023-07-31T05:01:25;19.61;;;5.8;;
67429;SDS011;54298;52.076;5.264;2023-07-31T05:04:38;9.21;;;4.61;;
67429;SDS011;54298;52.076;5.264;2023-07-31T05:06:15;12.9;;;5.11;;
67429;SDS011;54298;52.076;5.264;2023-07-31T05:07:53;11.8;;;5.11;;
67429;SDS011;54298;52.076;5.264;2023-07-31T05:09:30;11.1;;;4.41;;
67429;SDS011;54298;52.076;5.264;2023-07-31T05:12:44;15.8;;;5.11;;
67429;SDS011;54298;52.076;5.264;2023-07-31T05:14:21;12.3;;;4.3;;
67429;SDS011;54298;52.076;5.264;2023-07-31T05:15:58;9.81;;;4.5;;
67429;SDS011;54298;52.076;5.264;2023-07-31T05:19:11;12.7;;;4.61;;
67429;SDS011;54298;52.076;5.264;2023-07-31T05:20:49;8.1;;;4.3;;
67429;SDS011;54298;52.076;5.264;2023-07-31T05:22:26;11.7;;;5.6;;
67429;SDS011;54298;52.076;5.264;2023-07-31T05:24:03;11.4;;;5.2;;
67429;SDS011;54298;52.076;5.264;2023-07-31T05:27:18;12.4;;;4.61;;
67429;SDS011;54298;52.076;5.264;2023-07-31T05:28:55;11.6;;;4.5;;
67429;SDS011;54298;52.076;5.264;2023-07-31T05:30:31;8.5;;;4.0;;
67429;SDS011;54298;52.076;5.264;2023-07-31T05:33:45;10.6;;;4.3;;
67429;SDS011;54298;52.076;5.264;2023-07-31T05:35:21;10.7;;;4.0;;
67429;SDS011;54298;52.076;5.264;2023-07-31T05:36:57;7.7;;;3.9;;
67429;SDS011;54298;52.076;5.264;2023-07-31T05:40:11;6.0;;;3.8;;
67429;SDS011;54298;52.076;5.264;2023-07-31T05:41:49;9.4;;;3.6;;
67429;SDS011;54298;52.076;5.264;2023-07-31T05:43:26;5.5;;;3.3;;
67429;SDS011;54298;52.076;5.264;2023-07-31T05:45:03;7.4;;;3.7;;
67429;SDS011;54298;52.076;5.264;2023-07-31T05:48:18;6.5;;;4.0;;
67429;SDS011;54298;52.076;5.264;2023-07-31T05:49:54;7.7;;;4.1;;
67429;SDS011;54298;52.076;5.264;2023-07-31T05:51:32;19.7;;;10.4;;
67429;SDS011;54298;52.076;5.264;2023-07-31T05:54:45;16.11;;;7.1;;
67429;SDS011;54298;52.076;5.264;2023-07-31T05:56:22;17.5;;;8.0;;
67429;SDS011;54298;52.076;5.264;2023-07-31T05:57:59;21.3;;;8.9;;
67429;SDS011;54298;52.076;5.264;2023-07-31T05:59:36;9.5;;;5.2;;
67429;SDS011;54298;52.076;5.264;2023-07-31T06:02:49;13.1;;;5.0;;
67429;SDS011;54298;52.076;5.264;2023-07-31T06:04:26;12.2;;;5.6;;
67429;SDS011;54298;52.076;5.264;2023-07-31T06:06:02;17.7;;;9.31;;
67429;SDS011;54298;52.076;5.264;2023-07-31T06:09:17;12.5;;;6.1;;
67429;SDS011;54298;52.076;5.264;2023-07-31T06:10:53;11.6;;;5.6;;
67429;SDS011;54298;52.076;5.264;2023-07-31T06:12:29;16.8;;;8.31;;
67429;SDS011;54298;52.076;5.264;2023-07-31T06:15:42;11.1;;;4.7;;
67429;SDS011;54298;52.076;5.264;2023-07-31T06:17:19;12.5;;;5.7;;
67429;SDS011;54298;52.076;5.264;2023-07-31T06:18:56;10.8;;;4.8;;
67429;SDS011;54298;52.076;5.264;2023-07-31T06:20:34;7.8;;;4.3;;
67429;SDS011;54298;52.076;5.264;2023-07-31T06:23:47;8.5;;;4.7;;
67429;SDS011;54298;52.076;5.264;2023-07-31T06:25:24;9.6;;;5.11;;
67429;SDS011;54298;52.076;5.264;2023-07-31T06:27:01;7.9;;;4.61;;
67429;SDS011;54298;52.076;5.264;2023-07-31T06:30:15;9.21;;;3.8;;
67429;SDS011;54298;52.076;5.264;2023-07-31T06:31:52;8.5;;;4.2;;
67429;SDS011;54298;52.076;5.264;2023-07-31T06:33:29;9.6;;;6.0;;
67429;SDS011;54298;52.076;5.264;2023-07-31T06:35:06;10.7;;;5.6;;
67429;SDS011;54298;52.076;5.264;2023-07-31T06:38:21;9.1;;;4.5;;
67429;SDS011;54298;52.076;5.264;2023-07-31T06:40:00;5.4;;;2.9;;
67429;SDS011;54298;52.076;5.264;2023-07-31T06:41:38;10.4;;;4.0;;
67429;SDS011;54298;52.076;5.264;2023-07-31T06:44:52;8.71;;;3.8;;
67429;SDS011;54298;52.076;5.264;2023-07-31T06:46:29;8.0;;;4.0;;
67429;SDS011;54298;52.076;5.264;2023-07-31T06:48:05;5.9;;;3.5;;
67429;SDS011;54298;52.076;5.264;2023-07-31T06:51:19;9.0;;;3.3;;
67429;SDS011;54298;52.076;5.264;2023-07-31T06:52:55;10.3;;;4.61;;
67429;SDS011;54298;52.076;5.264;2023-07-31T06:54:32;11.9;;;7.1;;
67429;SDS011;54298;52.076;5.264;2023-07-31T06:56:08;9.81;;;5.8;;
67429;SDS011;54298;52.076;5.264;2023-07-31T06:59:23;6.8;;;3.3;;
67429;SDS011;54298;52.076;5.264;2023-07-31T07:01:00;5.2;;;3.0;;
67429;SDS011;54298;52.076;5.264;2023-07-31T07:02:37;6.4;;;3.4;;
67429;SDS011;54298;52.076;5.264;2023-07-31T07:05:51;8.2;;;3.5;;
67429;SDS011;54298;52.076;5.264;2023-07-31T07:07:28;6.0;;;2.9;;
67429;SDS011;54298;52.076;5.264;2023-07-31T07:09:05;6.9;;;3.9;;
67429;SDS011;54298;52.076;5.264;2023-07-31T07:10:42;7.5;;;3.4;;
67429;SDS011;54298;52.076;5.264;2023-07-31T07:13:55;9.31;;;4.0;;
67429;SDS011;54298;52.076;5.264;2023-07-31T07:15:32;5.0;;;2.9;;
67429;SDS011;54298;52.076;5.264;2023-07-31T07:17:09;7.3;;;3.1;;
67429;SDS011;54298;52.076;5.264;2023-07-31T07:20:23;9.6;;;3.1;;
67429;SDS011;54298;52.076;5.264;2023-07-31T07:22:00;5.3;;;3.0;;
67429;SDS011;54298;52.076;5.264;2023-07-31T07:23:38;4.3;;;2.8;;
67429;SDS011;54298;52.076;5.264;2023-07-31T07:26:51;7.0;;;3.1;;
67429;SDS011;54298;52.076;5.264;2023-07-31T07:28:28;5.3;;;3.1;;
67429;SDS011;54298;52.076;5.264;2023-07-31T07:30:05;5.2;;;3.0;;
67429;SDS011;54298;52.076;5.264;2023-07-31T07:31:42;5.8;;;2.5;;
67429;SDS011;54298;52.076;5.264;2023-07-31T07:34:57;5.8;;;3.3;;
67429;SDS011;54298;52.076;5.264;2023-07-31T07:36:33;7.6;;;4.3;;
67429;SDS011;54298;52.076;5.264;2023-07-31T07:38:11;5.7;;;3.3;;
67429;SDS011;54298;52.076;5.264;2023-07-31T07:41:25;3.6;;;2.6;;
67429;SDS011;54298;52.076;5.264;2023-07-31T07:43:02;8.81;;;4.61;;
67429;SDS011;54298;52.076;5.264;2023-07-31T07:44:39;10.5;;;6.6;;
67429;SDS011;54298;52.076;5.264;2023-07-31T07:46:16;9.21;;;5.0;;
67429;SDS011;54298;52.076;5.264;2023-07-31T07:49:30;5.3;;;2.7;;
67429;SDS011;54298;52.076;5.264;2023-07-31T07:51:08;10.6;;;4.7;;
67429;SDS011;54298;52.076;5.264;2023-07-31T07:52:45;5.4;;;2.7;;
67429;SDS011;54298;52.076;5.264;2023-07-31T07:55:58;3.7;;;2.1;;
67429;SDS011;54298;52.076;5.264;2023-07-31T07:57:36;5.0;;;2.7;;
67429;SDS011;54298;52.076;5.264;2023-07-31T07:59:12;6.9;;;2.4;;
67429;SDS011;54298;52.076;5.264;2023-07-31T08:02:26;4.2;;;2.21;;
67429;SDS011;54298;52.076;5.264;2023-07-31T08:04:03;4.5;;;1.8;;
67429;SDS011;54298;52.076;5.264;2023-07-31T08:05:40;3.0;;;1.6;;
67429;SDS011;54298;52.076;5.264;2023-07-31T08:07:16;2.0;;;1.5;;
67429;SDS011;54298;52.076;5.264;2023-07-31T08:10:31;3.4;;;1.6;;
67429;SDS011;54298;52.076;5.264;2023-07-31T08:12:08;3.4;;;1.5;;
67429;SDS011;54298;52.076;5.264;2023-07-31T08:13:45;7.4;;;1.6;;
67429;SDS011;54298;52.076;5.264;2023-07-31T08:16:59;3.6;;;1.9;;
67429;SDS011;54298;52.076;5.264;2023-07-31T08:18:37;2.21;;;1.2;;
67429;SDS011;54298;52.076;5.264;2023-07-31T08:20:14;3.5;;;1.5;;
67429;SDS011;54298;52.076;5.264;2023-07-31T08:21:51;4.5;;;2.1;;
67429;SDS011;54298;52.076;5.264;2023-07-31T08:25:05;5.7;;;3.1;;
67429;SDS011;54298;52.076;5.264;2023-07-31T08:26:43;4.61;;;1.9;;
67429;SDS011;54298;52.076;5.264;2023-07-31T08:28:20;2.8;;;1.4;;
67429;SDS011;54298;52.076;5.264;2023-07-31T08:31:34;2.5;;;1.3;;
67429;SDS011;54298;52.076;5.264;2023-07-31T08:33:11;3.4;;;1.5;;
67429;SDS011;54298;52.076;5.264;2023-07-31T08:34:48;1.5;;;1.0;;
67429;SDS011;54298;52.076;5.264;2023-07-31T08:36:25;1.9;;;1.2;;
67429;SDS011;54298;52.076;5.264;2023-07-31T08:39:39;2.9;;;1.3;;
67429;SDS011;54298;52.076;5.264;2023-07-31T08:41:16;2.9;;;1.6;;
67429;SDS011;54298;52.076;5.264;2023-07-31T08:42:54;2.8;;;1.4;;
67429;SDS011;54298;52.076;5.264;2023-07-31T08:46:10;2.1;;;1.3;;
67429;SDS011;54298;52.076;5.264;2023-07-31T08:47:48;1.4;;;1.2;;
67429;SDS011;54298;52.076;5.264;2023-07-31T08:49:26;3.1;;;1.11;;
67429;SDS011;54298;52.076;5.264;2023-07-31T08:51:06;2.1;;;1.2;;
67429;SDS011;54298;52.076;5.264;2023-07-31T08:54:23;1.8;;;1.0;;
67429;SDS011;54298;52.076;5.264;2023-07-31T08:56:00;3.8;;;1.2;;
67429;SDS011;54298;52.076;5.264;2023-07-31T08:57:39;2.9;;;1.3;;
67429;SDS011;54298;52.076;5.264;2023-07-31T09:00:58;2.9;;;1.8;;
67429;SDS011;54298;52.076;5.264;2023-07-31T09:02:41;3.3;;;2.0;;
67429;SDS011;54298;52.076;5.264;2023-07-31T09:04:27;3.5;;;1.11;;
67429;SDS011;54298;52.076;5.264;2023-07-31T09:06:05;2.5;;;1.4;;
67429;SDS011;54298;52.076;5.264;2023-07-31T09:09:23;1.7;;;1.3;;
67429;SDS011;54298;52.076;5.264;2023-07-31T09:10:59;4.1;;;1.8;;
67429;SDS011;54298;52.076;5.264;2023-07-31T09:12:37;10.7;;;6.7;;
67429;SDS011;54298;52.076;5.264;2023-07-31T09:14:15;3.1;;;1.6;;
67429;SDS011;54298;52.076;5.264;2023-07-31T09:17:32;2.9;;;1.3;;
67429;SDS011;54298;52.076;5.264;2023-07-31T09:19:10;3.1;;;1.7;;
67429;SDS011;54298;52.076;5.264;2023-07-31T09:20:50;2.31;;;1.5;;
67429;SDS011;54298;52.076;5.264;2023-07-31T09:22:36;4.0;;;2.0;;
67429;SDS011;54298;52.076;5.264;2023-07-31T09:26:01;2.1;;;1.4;;
67429;SDS011;54298;52.076;5.264;2023-07-31T09:27:45;3.3;;;1.9;;
67429;SDS011;54298;52.076;5.264;2023-07-31T09:29:23;2.8;;;1.5;;
67429;SDS011;54298;52.076;5.264;2023-07-31T09:31:01;4.41;;;2.0;;
67429;SDS011;54298;52.076;5.264;2023-07-31T09:34:14;4.5;;;2.5;;
67429;SDS011;54298;52.076;5.264;2023-07-31T09:35:51;10.21;;;4.1;;
67429;SDS011;54298;52.076;5.264;2023-07-31T09:37:29;3.2;;;2.0;;
67429;SDS011;54298;52.076;5.264;2023-07-31T09:40:46;4.8;;;2.6;;
67429;SDS011;54298;52.076;5.264;2023-07-31T09:42:24;7.4;;;3.3;;
67429;SDS011;54298;52.076;5.264;2023-07-31T09:44:02;3.7;;;1.9;;
67429;SDS011;54298;52.076;5.264;2023-07-31T09:45:40;4.7;;;1.9;;
67429;SDS011;54298;52.076;5.264;2023-07-31T09:50:48;3.2;;;1.6;;
67429;SDS011;54298;52.076;5.264;2023-07-31T09:52:25;3.7;;;1.8;;
67429;SDS011;54298;52.076;5.264;2023-07-31T09:54:02;3.1;;;1.8;;
67429;SDS011;54298;52.076;5.264;2023-07-31T09:57:18;2.6;;;1.5;;
67429;SDS011;54298;52.076;5.264;2023-07-31T09:58:58;3.6;;;1.9;;
67429;SDS011;54298;52.076;5.264;2023-07-31T10:00:35;2.9;;;1.6;;
67429;SDS011;54298;52.076;5.264;2023-07-31T10:02:14;3.0;;;2.0;;
67429;SDS011;54298;52.076;5.264;2023-07-31T10:05:35;8.1;;;2.21;;
67429;SDS011;54298;52.076;5.264;2023-07-31T10:07:15;4.5;;;2.31;;
67429;SDS011;54298;52.076;5.264;2023-07-31T10:08:54;3.8;;;2.21;;
67429;SDS011;54298;52.076;5.264;2023-07-31T10:12:12;3.7;;;2.6;;
67429;SDS011;54298;52.076;5.264;2023-07-31T10:13:54;7.1;;;2.6;;
67429;SDS011;54298;52.076;5.264;2023-07-31T10:15:31;4.2;;;2.31;;
67429;SDS011;54298;52.076;5.264;2023-07-31T10:17:09;5.0;;;2.4;;
67429;SDS011;54298;52.076;5.264;2023-07-31T10:20:26;5.2;;;2.9;;
67429;SDS011;54298;52.076;5.264;2023-07-31T10:22:05;5.9;;;2.9;;
67429;SDS011;54298;52.076;5.264;2023-07-31T10:23:43;6.1;;;3.2;;
67429;SDS011;54298;52.076;5.264;2023-07-31T10:25:20;5.3;;;3.0;;
67429;SDS011;54298;52.076;5.264;2023-07-31T10:28:37;4.41;;;2.4;;
67429;SDS011;54298;52.076;5.264;2023-07-31T10:30:15;10.21;;;4.7;;
67429;SDS011;54298;52.076;5.264;2023-07-31T10:31:56;4.7;;;3.6;;
67429;SDS011;54298;52.076;5.264;2023-07-31T10:33:33;4.91;;;2.7;;
67429;SDS011;54298;52.076;5.264;2023-07-31T10:36:48;4.3;;;2.8;;
67429;SDS011;54298;52.076;5.264;2023-07-31T10:38:25;6.2;;;2.7;;
67429;SDS011;54298;52.076;5.264;2023-07-31T10:40:02;5.2;;;3.2;;
67429;SDS011;54298;52.076;5.264;2023-07-31T10:43:25;3.8;;;2.5;;
67429;SDS011;54298;52.076;5.264;2023-07-31T10:45:03;6.1;;;2.5;;
67429;SDS011;54298;52.076;5.264;2023-07-31T10:46:42;5.2;;;2.7;;
67429;SDS011;54298;52.076;5.264;2023-07-31T10:48:21;4.8;;;2.9;;
67429;SDS011;54298;52.076;5.264;2023-07-31T10:52:10;4.7;;;2.4;;
67429;SDS011;54298;52.076;5.264;2023-07-31T10:53:48;6.0;;;2.6;;
67429;SDS011;54298;52.076;5.264;2023-07-31T10:55:26;4.5;;;2.4;;
67429;SDS011;54298;52.076;5.264;2023-07-31T10:57:06;4.0;;;2.7;;
67429;SDS011;54298;52.076;5.264;2023-07-31T10:59:00;4.0;;;2.1;;
67429;SDS011;54298;52.076;5.264;2023-07-31T11:02:23;5.3;;;2.7;;
67429;SDS011;54298;52.076;5.264;2023-07-31T11:04:01;4.7;;;3.3;;
67429;SDS011;54298;52.076;5.264;2023-07-31T11:05:48;3.1;;;2.0;;
67429;SDS011;54298;52.076;5.264;2023-07-31T11:07:26;3.2;;;1.6;;
67429;SDS011;54298;52.076;5.264;2023-07-31T11:09:23;4.3;;;1.9;;
67429;SDS011;54298;52.076;5.264;2023-07-31T11:12:44;4.5;;;1.9;;
67429;SDS011;54298;52.076;5.264;2023-07-31T11:14:21;6.3;;;1.9;;
67429;SDS011;54298;52.076;5.264;2023-07-31T11:15:58;6.8;;;1.6;;
67429;SDS011;54298;52.076;5.264;2023-07-31T11:17:38;2.9;;;1.8;;
67429;SDS011;54298;52.076;5.264;2023-07-31T11:20:57;3.0;;;1.6;;
67429;SDS011;54298;52.076;5.264;2023-07-31T11:22:34;3.4;;;1.8;;
67429;SDS011;54298;52.076;5.264;2023-07-31T11:24:12;3.4;;;1.8;;
67429;SDS011;54298;52.076;5.264;2023-07-31T11:27:27;6.6;;;3.1;;
67429;SDS011;54298;52.076;5.264;2023-07-31T11:29:05;5.11;;;2.5;;
67429;SDS011;54298;52.076;5.264;2023-07-31T11:30:46;4.5;;;2.1;;
67429;SDS011;54298;52.076;5.264;2023-07-31T11:32:23;2.8;;;1.7;;
67429;SDS011;54298;52.076;5.264;2023-07-31T11:35:44;4.2;;;1.6;;
67429;SDS011;54298;52.076;5.264;2023-07-31T11:37:22;6.5;;;2.21;;
67429;SDS011;54298;52.076;5.264;2023-07-31T11:39:05;3.3;;;2.31;;
67429;SDS011;54298;52.076;5.264;2023-07-31T11:40:41;3.6;;;2.31;;
67429;SDS011;54298;52.076;5.264;2023-07-31T11:43:59;6.4;;;2.5;;
67429;SDS011;54298;52.076;5.264;2023-07-31T11:45:36;3.5;;;2.1;;
67429;SDS011;54298;52.076;5.264;2023-07-31T11:47:15;5.0;;;2.1;;
67429;SDS011;54298;52.076;5.264;2023-07-31T11:48:52;3.0;;;2.1;;
67429;SDS011;54298;52.076;5.264;2023-07-31T11:52:13;3.2;;;2.21;;
67429;SDS011;54298;52.076;5.264;2023-07-31T11:53:51;3.6;;;2.5;;
67429;SDS011;54298;52.076;5.264;2023-07-31T11:55:31;5.2;;;2.4;;
67429;SDS011;54298;52.076;5.264;2023-07-31T11:58:45;6.5;;;2.6;;
67429;SDS011;54298;52.076;5.264;2023-07-31T12:00:22;4.5;;;2.4;;
67429;SDS011;54298;52.076;5.264;2023-07-31T12:02:00;3.2;;;2.0;;
67429;SDS011;54298;52.076;5.264;2023-07-31T12:03:37;3.6;;;2.21;;
67429;SDS011;54298;52.076;5.264;2023-07-31T12:06:52;4.1;;;2.31;;
67429;SDS011;54298;52.076;5.264;2023-07-31T12:08:29;3.7;;;2.0;;
67429;SDS011;54298;52.076;5.264;2023-07-31T12:10:07;3.7;;;2.21;;
67429;SDS011;54298;52.076;5.264;2023-07-31T12:13:22;3.1;;;2.0;;
67429;SDS011;54298;52.076;5.264;2023-07-31T12:15:00;4.2;;;2.31;;
67429;SDS011;54298;52.076;5.264;2023-07-31T12:16:37;4.3;;;1.9;;
67429;SDS011;54298;52.076;5.264;2023-07-31T12:18:16;5.3;;;2.5;;
67429;SDS011;54298;52.076;5.264;2023-07-31T12:21:32;4.0;;;2.4;;
67429;SDS011;54298;52.076;5.264;2023-07-31T12:23:13;8.1;;;4.7;;
67429;SDS011;54298;52.076;5.264;2023-07-31T12:24:51;10.21;;;5.3;;
67429;SDS011;54298;52.076;5.264;2023-07-31T12:28:09;4.7;;;2.31;;
67429;SDS011;54298;52.076;5.264;2023-07-31T12:29:47;2.8;;;2.0;;
67429;SDS011;54298;52.076;5.264;2023-07-31T12:31:23;5.6;;;2.31;;
67429;SDS011;54298;52.076;5.264;2023-07-31T12:33:04;4.3;;;2.31;;
67429;SDS011;54298;52.076;5.264;2023-07-31T12:36:20;2.9;;;2.1;;
67429;SDS011;54298;52.076;5.264;2023-07-31T12:38:00;3.5;;;1.8;;
67429;SDS011;54298;52.076;5.264;2023-07-31T12:39:37;3.6;;;1.5;;
67429;SDS011;54298;52.076;5.264;2023-07-31T12:41:14;2.5;;;1.6;;
67429;SDS011;54298;52.076;5.264;2023-07-31T12:44:27;5.7;;;3.6;;
67429;SDS011;54298;52.076;5.264;2023-07-31T12:46:04;4.41;;;2.7;;
67429;SDS011;54298;52.076;5.264;2023-07-31T12:47:43;6.5;;;3.6;;
67429;SDS011;54298;52.076;5.264;2023-07-31T12:50:57;5.2;;;2.6;;
67429;SDS011;54298;52.076;5.264;2023-07-31T12:52:34;3.0;;;1.9;;
67429;SDS011;54298;52.076;5.264;2023-07-31T12:54:11;6.6;;;3.7;;